Impacts TAF Board
For situational awareness. Not to be used for flight planning purposes.
IDs:

KCEC - Crescent City/McNama, CA, US

Issued at 1135 UTC 15 Jul 2020
Updated at 1150 UTC 15 Jul 2020
Potential Impact None Slight Moderate High
Time1056Z 15/12Z 15/13Z 15/14Z 15/15Z 15/16Z 15/17Z 15/18Z 15/19Z 15/20Z 15/21Z 15/22Z 15/23Z 16/00Z>>
Type OBS PRVL
  [TEMP]  
PRVL
  [TEMP]  
PRVL
  [TEMP]  
PRVL
  [TEMP]  
PRVL PRVL PRVL PRVL PRVL PRVL PRVL PRVL PRVL
VIS 4 4
  [1]  
4
  [1]  
4
  [1]  
4
  [1]  
4 4 4 5 5 5 6 6 6
CIG -- --
  [6]  
--
  [6]  
--
  [6]  
--
  [6]  
-- -- -- -- -- -- -- -- --
Cover CLR FEW
  [BKN]  
FEW
  [BKN]  
FEW
  [BKN]  
FEW
  [BKN]  
FEW FEW FEW FEW FEW FEW FEW FEW FEW
FltCat MVFR MVFR
  [IFR]  
MVFR
  [IFR]  
MVFR
  [IFR]  
MVFR
  [IFR]  
MVFR MVFR MVFR MVFR MVFR MVFR VFR VFR VFR
WX BR BR
  [BR]  
BR
  [BR]  
BR
  [BR]  
BR
  [BR]  
BR BR BR HZ HZ HZ HZ HZ HZ
WDir VRB VRB
[VRB]
VRB
[VRB]
VRB
[VRB]
VRB
[VRB]
VRB VRB VRB 300 300 300 330 330 330
WSpd 0 4
  [4]  
4
  [4]  
4
  [4]  
4
  [4]  
4 4 4 12 12 12 15 15 15
WGst -- --
  [--]  
--
  [--]  
--
  [--]  
--
  [--]  
-- -- -- -- -- -- 25 25 25
Raw TAF
KCEC 151135Z 1512/1612 VRB04KT 4SM BR FEW006 WS015/04025KT
  TEMPO 1512/1516 1SM BR BKN006
  FM151900 30012KT 5SM HZ FEW010
  FM152200 33015G25KT 6SM HZ FEW250
  FM160700 35006KT 4SM BR SCT008


Raw METAR
KCEC 151056Z AUTO 00000KT 4SM BR CLR 11/09 A2989 RMK AO2 SLP123 T01060089
KCEC 151048Z AUTO 00000KT 3SM BR FEW006 10/09 A2989 RMK AO2 T01000089
KCEC 151040Z AUTO 00000KT 2 1/2SM BR SCT006 10/09 A2989 RMK AO2 T01000089
KCEC 151030Z AUTO 00000KT 1 1/2SM BR BKN006 10/08 A2989 RMK AO2 T01000083
KCEC 151014Z AUTO 34003KT 1/4SM FG VV005 09/08 A2990 RMK AO2 T00940078
KCEC 151007Z AUTO 00000KT 1 1/4SM BR CLR 10/08 A2990 RMK AO2 T01000083
KCEC 150956Z AUTO 00000KT 4SM BR CLR 09/08 A2990 RMK AO2 SLP125 T00940078
KCEC 150937Z AUTO 00000KT 3SM BR CLR 09/08 A2990 RMK AO2 T00940078
KCEC 150930Z AUTO 36003KT 1 3/4SM BR CLR 09/08 A2990 RMK AO2 T00940078
KCEC 150856Z AUTO 00000KT 4SM BR CLR 10/09 A2991 RMK AO2 SLP128 T01000089 58006

METAR Board
Radar Display
Forecast Discussion
For situational awareness. Not to be used for flight planning purposes.